Pelicana — 9VBM8 — position and weather

sailwx.info

Track history (hours):
 
Tides and Currents Weather Stations Pressure Air Temp Water Temp Dewpoint Dewpoint Depression Visibility Wind Speed Wind Dir Waves Ship Positions

Pelicana

Last reported at 2017-Nov-23 12:29 UTC. Time now 2017-Nov-23 13:00 UTC.
Position N 51°21' E 003°11'.

Length 213 m; draft 7.5 m.

Type: Ship. MMSI: 564037000.

Date/timePositionNaut miles runAvg speedWind from/ knotsBaromVisibWave heightAir tempDewpointWater temp
2017-Nov-23 12:29N 51°21' E 003°11'0 0.0
2017-Nov-23 11:59N 51°21' E 003°11'0 0.0
2017-Nov-23 11:29N 51°21' E 003°11'0 0.0
2017-Nov-23 10:58N 51°21' E 003°11'0 0.0
2017-Nov-23 10:28N 51°21' E 003°11'0 0.0
2017-Nov-23 09:59N 51°21' E 003°11'0 0.0
2017-Nov-23 09:28N 51°21' E 003°11'0 0.0
2017-Nov-23 08:58N 51°21' E 003°11'0 0.0
2017-Nov-23 08:28N 51°21' E 003°11'0 0.0
2017-Nov-23 07:58N 51°21' E 003°11'0 0.0
2017-Nov-23 07:28N 51°21' E 003°11'0 0.0
2017-Nov-23 06:59N 51°21' E 003°11'0 0.0
2017-Nov-23 06:29N 51°21' E 003°11'0 0.6
2017-Nov-23 06:00N 51°21' E 003°11'1 1.6
2017-Nov-23 05:30N 51°22' E 003°12'2 4.2
2017-Nov-23 05:00N 51°23' E 003°10'3 6.2
2017-Nov-23 04:30N 51°25' E 003°14'612.0
2017-Nov-23 04:00N 51°25' E 003°24'612.1
2017-Nov-23 03:30N 51°26' E 003°33'4 8.2
2017-Nov-23 03:00N 51°27' E 003°40'2 3.4
2017-Nov-23 02:30N 51°27' E 003°42'1 1.7
2017-Nov-23 02:00N 51°27' E 003°43'0 0.1
2017-Nov-23 01:19N 51°27' E 003°43'0 0.0
2017-Nov-23 00:55N 51°27' E 003°43'0 0.0
2017-Nov-23 00:28N 51°27' E 003°43'0 0.0
2017-Nov-22 23:55N 51°27' E 003°43'0 0.0
2017-Nov-22 23:28N 51°27' E 003°43'0 0.0
2017-Nov-22 22:55N 51°27' E 003°43'0 0.0
2017-Nov-22 22:19N 51°27' E 003°43'0 0.0
2017-Nov-22 21:52N 51°27' E 003°43'0 0.0
2017-Nov-22 21:19N 51°27' E 003°43'0 0.0
2017-Nov-22 20:55N 51°27' E 003°43'0 0.0
2017-Nov-22 20:19N 51°27' E 003°43'0 0.0
2017-Nov-22 19:58N 51°27' E 003°43'0 0.0
2017-Nov-22 19:19N 51°27' E 003°43'  
2017-Nov-20 00:28N 51°27' E 003°43'0 0.0
2017-Nov-19 23:55N 51°27' E 003°43'0 0.0
2017-Nov-19 23:28N 51°27' E 003°43'0 0.0
2017-Nov-19 22:55N 51°27' E 003°43'0 0.0
2017-Nov-19 22:28N 51°27' E 003°43'0 0.0
2017-Nov-19 21:28N 51°27' E 003°43'0 0.0
2017-Nov-19 20:55N 51°27' E 003°43'0 0.0
2017-Nov-19 20:25N 51°27' E 003°43'0 0.0
2017-Nov-19 19:55N 51°27' E 003°43'0 0.0
2017-Nov-19 19:25N 51°27' E 003°43'0 0.0
2017-Nov-19 18:43N 51°27' E 003°43'0 0.0
2017-Nov-19 18:25N 51°27' E 003°43'0 0.0
2017-Nov-19 17:55N 51°27' E 003°43'0 0.0
2017-Nov-19 17:19N 51°27' E 003°43'0 0.0
2017-Nov-19 16:58N 51°27' E 003°43'0 0.0
2017-Nov-19 16:22N 51°27' E 003°43'0 0.0
2017-Nov-19 15:55N 51°27' E 003°43'0 0.0
2017-Nov-19 15:19N 51°27' E 003°43'0 0.0
2017-Nov-19 14:55N 51°27' E 003°43'0 0.0
2017-Nov-19 14:28N 51°27' E 003°43'0 0.0
2017-Nov-19 13:37N 51°27' E 003°43'0 0.0
2017-Nov-19 13:13N 51°27' E 003°43'0 0.0
2017-Nov-19 12:58N 51°27' E 003°43'0 0.4
2017-Nov-19 12:30N 51°27' E 003°43'1 2.6
2017-Nov-19 12:00N 51°28' E 003°41'3 5.8
2017-Nov-19 11:30N 51°26' E 003°37'612.4
2017-Nov-19 11:00N 51°25' E 003°27'613.0
2017-Nov-19 10:30N 51°24' E 003°17'612.0
2017-Nov-19 10:00N 51°24' E 003°08'611.4
2017-Nov-19 09:30N 51°25' E 002°58'510.9
2017-Nov-19 09:00N 51°25' E 002°50'510.2
2017-Nov-19 08:29N 51°23' E 002°42'510.2
2017-Nov-19 07:59N 51°22' E 002°34'510.4
2017-Nov-19 07:28N 51°21' E 002°26'510.6
2017-Nov-19 07:00N 51°18' E 002°19'510.6
2017-Nov-19 06:30N 51°15' E 002°12'511.0
2017-Nov-19 06:00N 51°13' E 002°04'611.1
2017-Nov-19 05:30N 51°10' E 001°56'611.1
2017-Nov-19 05:00N 51°07' E 001°49'510.6
2017-Nov-19 04:30N 51°04' E 001°43'510.9
2017-Nov-19 04:00N 50°60' E 001°37'611.4
2017-Nov-19 03:30N 50°56' E 001°30'1211.6
2017-Nov-19 02:27N 50°45' E 001°22'4811.7
2017-Nov-18 22:18N 50°22' E 000°15'413.3
2017-Nov-18 22:00N 50°21' E 000°09'713.5
2017-Nov-18 21:30N 50°19' W 000°02'814.4
2017-Nov-18 20:57N 50°17' W 000°13'2815.2
2017-Nov-18 19:06N 50°10' W 000°56'115.2
2017-Nov-18 19:00N 50°09' W 000°58'814.9
2017-Nov-18 18:29N 50°07' W 001°10'714.3
2017-Nov-18 18:00N 50°05' W 001°20'713.8
2017-Nov-18 17:31N 50°04' W 001°31'713.0
2017-Nov-18 17:01N 50°02' W 001°40'612.2
2017-Nov-18 16:30N 50°01' W 001°50'611.4
2017-Nov-18 16:01N 49°59' W 001°58'510.6
2017-Nov-18 15:31N 49°57' W 002°06'510.0
2017-Nov-18 15:00N 49°56' W 002°13'18 9.7
2017-Nov-18 13:08N 49°51' W 002°41'110.0
2017-Nov-18 13:00N 49°51' W 002°43'1410.5
2017-Nov-18 11:42N 49°47' W 003°03'611.2
2017-Nov-18 11:09N 49°43' W 003°11'211.4
2017-Nov-18 11:00N 49°42' W 003°13'611.5
2017-Nov-18 10:30N 49°39' W 003°21'2511.8
2017-Nov-18 08:20N 49°27' W 003°55'912.2
2017-Nov-18 07:35N 49°22' W 004°07'212.4
2017-Nov-18 07:27N 49°21' W 004°09'612.7
2017-Nov-18 06:57N 49°18' W 004°17'612.8
2017-Nov-18 06:30N 49°15' W 004°25'1513.4
2017-Nov-18 05:22N 49°07' W 004°45'514.3
2017-Nov-18 05:00N 49°04' W 004°51'714.4
2017-Nov-18 04:30N 49°00' W 005°01'814.7
2017-Nov-18 03:58N 48°57' W 005°12'714.6
2017-Nov-18 03:30N 48°54' W 005°21'714.7
2017-Nov-18 03:00N 48°50' W 005°30'815.0
2017-Nov-18 02:27N 48°44' W 005°39'715.2
2017-Nov-18 02:00N 48°38' W 005°43'815.1
2017-Nov-18 01:29N 48°31' W 005°49'714.7
2017-Nov-18 01:00N 48°24' W 005°54'814.5
2017-Nov-18 00:28N 48°18' W 005°59'614.1
2017-Nov-18 00:00N 48°12' W 006°04'713.8
2017-Nov-17 23:30N 48°06' W 006°09'713.7
2017-Nov-17 22:58N 47°59' W 006°14'815.7
2017-Nov-17 22:29N 47°52' W 006°19'510.9
2017-Nov-17 21:59N 47°48' W 006°23'612.8
2017-Nov-17 21:30N 47°42' W 006°27'712.6
2017-Nov-17 20:59N 47°36' W 006°31'712.2
2017-Nov-17 20:26N 47°30' W 006°36'512.6
2017-Nov-17 20:00N 47°25' W 006°40'713.0
2017-Nov-17 19:28N 47°19' W 006°44'813.3
2017-Nov-17 18:50N 47°12' W 006°50'513.0
2017-Nov-17 18:26N 47°07' W 006°53'713.0
2017-Nov-17 17:56N 47°01' W 006°58'713.1
2017-Nov-17 17:23N 46°55' W 007°03'612.5
2017-Nov-17 16:54N 46°50' W 007°07'  
2017-Nov-14 03:06N 29°39' W 014°46'5112.2
2017-Nov-13 22:55N 28°50' W 015°03'512.3
2017-Nov-13 22:30N 28°46' W 015°04'612.2
2017-Nov-13 22:00N 28°40' W 015°06'  
Track history (hours):
 
Tides and Currents Weather Stations Pressure Air Temp Water Temp Dewpoint Dewpoint Depression Visibility Wind Speed Wind Dir Waves Ship Positions

Pelicana

Last reported at 2017-Nov-23 12:29 UTC. Time now 2017-Nov-23 13:00 UTC.
Position N 51°21' E 003°11'.

Length 213 m; draft 7.5 m.

Type: Ship. MMSI: 564037000.

Date/timePositionNaut miles runAvg speedWind from/ knotsBaromVisibWave heightAir tempDewpointWater temp
2017-Nov-23 12:29N 51°21' E 003°11'0 0.0
2017-Nov-23 11:59N 51°21' E 003°11'0 0.0
2017-Nov-23 11:29N 51°21' E 003°11'0 0.0
2017-Nov-23 10:58N 51°21' E 003°11'0 0.0
2017-Nov-23 10:28N 51°21' E 003°11'0 0.0
2017-Nov-23 09:59N 51°21' E 003°11'0 0.0
2017-Nov-23 09:28N 51°21' E 003°11'0 0.0
2017-Nov-23 08:58N 51°21' E 003°11'0 0.0
2017-Nov-23 08:28N 51°21' E 003°11'0 0.0
2017-Nov-23 07:58N 51°21' E 003°11'0 0.0
2017-Nov-23 07:28N 51°21' E 003°11'0 0.0
2017-Nov-23 06:59N 51°21' E 003°11'0 0.0
2017-Nov-23 06:29N 51°21' E 003°11'0 0.6
2017-Nov-23 06:00N 51°21' E 003°11'1 1.6
2017-Nov-23 05:30N 51°22' E 003°12'2 4.2
2017-Nov-23 05:00N 51°23' E 003°10'3 6.2
2017-Nov-23 04:30N 51°25' E 003°14'612.0
2017-Nov-23 04:00N 51°25' E 003°24'612.1
2017-Nov-23 03:30N 51°26' E 003°33'4 8.2
2017-Nov-23 03:00N 51°27' E 003°40'2 3.4
2017-Nov-23 02:30N 51°27' E 003°42'1 1.7
2017-Nov-23 02:00N 51°27' E 003°43'0 0.1
2017-Nov-23 01:19N 51°27' E 003°43'0 0.0
2017-Nov-23 00:55N 51°27' E 003°43'0 0.0
2017-Nov-23 00:28N 51°27' E 003°43'0 0.0
2017-Nov-22 23:55N 51°27' E 003°43'0 0.0
2017-Nov-22 23:28N 51°27' E 003°43'0 0.0
2017-Nov-22 22:55N 51°27' E 003°43'0 0.0
2017-Nov-22 22:19N 51°27' E 003°43'0 0.0
2017-Nov-22 21:52N 51°27' E 003°43'0 0.0
2017-Nov-22 21:19N 51°27' E 003°43'0 0.0
2017-Nov-22 20:55N 51°27' E 003°43'0 0.0
2017-Nov-22 20:19N 51°27' E 003°43'0 0.0
2017-Nov-22 19:58N 51°27' E 003°43'0 0.0
2017-Nov-22 19:19N 51°27' E 003°43'  
2017-Nov-20 00:28N 51°27' E 003°43'0 0.0
2017-Nov-19 23:55N 51°27' E 003°43'0 0.0
2017-Nov-19 23:28N 51°27' E 003°43'0 0.0
2017-Nov-19 22:55N 51°27' E 003°43'0 0.0
2017-Nov-19 22:28N 51°27' E 003°43'0 0.0
2017-Nov-19 21:28N 51°27' E 003°43'0 0.0
2017-Nov-19 20:55N 51°27' E 003°43'0 0.0
2017-Nov-19 20:25N 51°27' E 003°43'0 0.0
2017-Nov-19 19:55N 51°27' E 003°43'0 0.0
2017-Nov-19 19:25N 51°27' E 003°43'0 0.0
2017-Nov-19 18:43N 51°27' E 003°43'0 0.0
2017-Nov-19 18:25N 51°27' E 003°43'0 0.0
2017-Nov-19 17:55N 51°27' E 003°43'0 0.0
2017-Nov-19 17:19N 51°27' E 003°43'0 0.0
2017-Nov-19 16:58N 51°27' E 003°43'0 0.0
2017-Nov-19 16:22N 51°27' E 003°43'0 0.0
2017-Nov-19 15:55N 51°27' E 003°43'0 0.0
2017-Nov-19 15:19N 51°27' E 003°43'0 0.0
2017-Nov-19 14:55N 51°27' E 003°43'0 0.0
2017-Nov-19 14:28N 51°27' E 003°43'0 0.0
2017-Nov-19 13:37N 51°27' E 003°43'0 0.0
2017-Nov-19 13:13N 51°27' E 003°43'0 0.0
2017-Nov-19 12:58N 51°27' E 003°43'0 0.4
2017-Nov-19 12:30N 51°27' E 003°43'1 2.6
2017-Nov-19 12:00N 51°28' E 003°41'3 5.8
2017-Nov-19 11:30N 51°26' E 003°37'612.4
2017-Nov-19 11:00N 51°25' E 003°27'613.0
2017-Nov-19 10:30N 51°24' E 003°17'612.0
2017-Nov-19 10:00N 51°24' E 003°08'611.4
2017-Nov-19 09:30N 51°25' E 002°58'510.9
2017-Nov-19 09:00N 51°25' E 002°50'510.2
2017-Nov-19 08:29N 51°23' E 002°42'510.2
2017-Nov-19 07:59N 51°22' E 002°34'510.4
2017-Nov-19 07:28N 51°21' E 002°26'510.6
2017-Nov-19 07:00N 51°18' E 002°19'510.6
2017-Nov-19 06:30N 51°15' E 002°12'511.0
2017-Nov-19 06:00N 51°13' E 002°04'611.1
2017-Nov-19 05:30N 51°10' E 001°56'611.1
2017-Nov-19 05:00N 51°07' E 001°49'510.6
2017-Nov-19 04:30N 51°04' E 001°43'510.9
2017-Nov-19 04:00N 50°60' E 001°37'611.4
2017-Nov-19 03:30N 50°56' E 001°30'1211.6
2017-Nov-19 02:27N 50°45' E 001°22'4811.7
2017-Nov-18 22:18N 50°22' E 000°15'413.3
2017-Nov-18 22:00N 50°21' E 000°09'713.5
2017-Nov-18 21:30N 50°19' W 000°02'814.4
2017-Nov-18 20:57N 50°17' W 000°13'2815.2
2017-Nov-18 19:06N 50°10' W 000°56'115.2
2017-Nov-18 19:00N 50°09' W 000°58'814.9
2017-Nov-18 18:29N 50°07' W 001°10'714.3
2017-Nov-18 18:00N 50°05' W 001°20'713.8
2017-Nov-18 17:31N 50°04' W 001°31'713.0
2017-Nov-18 17:01N 50°02' W 001°40'612.2
2017-Nov-18 16:30N 50°01' W 001°50'611.4
2017-Nov-18 16:01N 49°59' W 001°58'510.6
2017-Nov-18 15:31N 49°57' W 002°06'510.0
2017-Nov-18 15:00N 49°56' W 002°13'18 9.7
2017-Nov-18 13:08N 49°51' W 002°41'110.0
2017-Nov-18 13:00N 49°51' W 002°43'1410.5
2017-Nov-18 11:42N 49°47' W 003°03'611.2
2017-Nov-18 11:09N 49°43' W 003°11'211.4
2017-Nov-18 11:00N 49°42' W 003°13'611.5
2017-Nov-18 10:30N 49°39' W 003°21'2511.8
2017-Nov-18 08:20N 49°27' W 003°55'912.2
2017-Nov-18 07:35N 49°22' W 004°07'212.4
2017-Nov-18 07:27N 49°21' W 004°09'612.7
2017-Nov-18 06:57N 49°18' W 004°17'612.8
2017-Nov-18 06:30N 49°15' W 004°25'1513.4
2017-Nov-18 05:22N 49°07' W 004°45'514.3
2017-Nov-18 05:00N 49°04' W 004°51'714.4
2017-Nov-18 04:30N 49°00' W 005°01'814.7
2017-Nov-18 03:58N 48°57' W 005°12'714.6
2017-Nov-18 03:30N 48°54' W 005°21'714.7
2017-Nov-18 03:00N 48°50' W 005°30'815.0
2017-Nov-18 02:27N 48°44' W 005°39'715.2
2017-Nov-18 02:00N 48°38' W 005°43'815.1
2017-Nov-18 01:29N 48°31' W 005°49'714.7
2017-Nov-18 01:00N 48°24' W 005°54'814.5
2017-Nov-18 00:28N 48°18' W 005°59'614.1
2017-Nov-18 00:00N 48°12' W 006°04'713.8
2017-Nov-17 23:30N 48°06' W 006°09'713.7
2017-Nov-17 22:58N 47°59' W 006°14'815.7
2017-Nov-17 22:29N 47°52' W 006°19'510.9
2017-Nov-17 21:59N 47°48' W 006°23'612.8
2017-Nov-17 21:30N 47°42' W 006°27'712.6
2017-Nov-17 20:59N 47°36' W 006°31'712.2
2017-Nov-17 20:26N 47°30' W 006°36'512.6
2017-Nov-17 20:00N 47°25' W 006°40'713.0
2017-Nov-17 19:28N 47°19' W 006°44'813.3
2017-Nov-17 18:50N 47°12' W 006°50'513.0
2017-Nov-17 18:26N 47°07' W 006°53'713.0
2017-Nov-17 17:56N 47°01' W 006°58'713.1
2017-Nov-17 17:23N 46°55' W 007°03'612.5
2017-Nov-17 16:54N 46°50' W 007°07'  
2017-Nov-14 03:06N 29°39' W 014°46'5112.2
2017-Nov-13 22:55N 28°50' W 015°03'512.3
2017-Nov-13 22:30N 28°46' W 015°04'612.2
2017-Nov-13 22:00N 28°40' W 015°06'  

Dump ship's entire track history